sensor_id;sensor_type;location;lat;lon;timestamp;P1;durP1;ratioP1;P2;durP2;ratioP2
20928;SDS011;21895;47.072;15.132;2022-09-09T00:02:01;3.70;;;0.70;;
20928;SDS011;21895;47.072;15.132;2022-09-09T00:05:04;6.13;;;0.63;;
20928;SDS011;21895;47.072;15.132;2022-09-09T00:07:55;2.53;;;0.82;;
20928;SDS011;21895;47.072;15.132;2022-09-09T00:13:26;4.03;;;0.77;;
20928;SDS011;21895;47.072;15.132;2022-09-09T00:16:24;9.20;;;0.60;;
20928;SDS011;21895;47.072;15.132;2022-09-09T00:19:05;5.85;;;0.70;;
20928;SDS011;21895;47.072;15.132;2022-09-09T00:22:13;4.53;;;0.90;;
20928;SDS011;21895;47.072;15.132;2022-09-09T00:24:48;8.23;;;0.90;;
20928;SDS011;21895;47.072;15.132;2022-09-09T00:27:30;4.00;;;0.82;;
20928;SDS011;21895;47.072;15.132;2022-09-09T00:30:31;2.92;;;0.80;;
20928;SDS011;21895;47.072;15.132;2022-09-09T00:33:01;13.40;;;1.10;;
20928;SDS011;21895;47.072;15.132;2022-09-09T00:35:56;2.50;;;0.87;;
20928;SDS011;21895;47.072;15.132;2022-09-09T00:38:28;10.20;;;0.90;;
20928;SDS011;21895;47.072;15.132;2022-09-09T00:41:36;4.10;;;0.57;;
20928;SDS011;21895;47.072;15.132;2022-09-09T00:47:20;7.30;;;0.90;;
20928;SDS011;21895;47.072;15.132;2022-09-09T00:55:13;3.60;;;0.80;;
20928;SDS011;21895;47.072;15.132;2022-09-09T00:58:11;5.13;;;0.70;;
20928;SDS011;21895;47.072;15.132;2022-09-09T01:03:53;1.07;;;0.80;;
20928;SDS011;21895;47.072;15.132;2022-09-09T01:06:34;4.93;;;0.70;;
20928;SDS011;21895;47.072;15.132;2022-09-09T01:12:02;5.80;;;0.90;;
20928;SDS011;21895;47.072;15.132;2022-09-09T01:14:45;5.80;;;1.12;;
20928;SDS011;21895;47.072;15.132;2022-09-09T01:17:24;8.07;;;0.80;;
20928;SDS011;21895;47.072;15.132;2022-09-09T01:20:08;3.80;;;0.80;;
20928;SDS011;21895;47.072;15.132;2022-09-09T01:24:22;5.37;;;0.90;;
20928;SDS011;21895;47.072;15.132;2022-09-09T01:27:34;2.10;;;0.90;;
20928;SDS011;21895;47.072;15.132;2022-09-09T01:30:10;2.47;;;0.80;;
20928;SDS011;21895;47.072;15.132;2022-09-09T01:32:50;5.63;;;0.77;;
20928;SDS011;21895;47.072;15.132;2022-09-09T01:38:21;1.05;;;0.60;;
20928;SDS011;21895;47.072;15.132;2022-09-09T01:40:50;3.42;;;0.57;;
20928;SDS011;21895;47.072;15.132;2022-09-09T01:43:19;4.57;;;0.70;;
20928;SDS011;21895;47.072;15.132;2022-09-09T01:45:48;2.77;;;0.80;;
20928;SDS011;21895;47.072;15.132;2022-09-09T01:48:20;3.77;;;1.10;;
20928;SDS011;21895;47.072;15.132;2022-09-09T01:50:49;5.70;;;0.70;;
20928;SDS011;21895;47.072;15.132;2022-09-09T01:53:16;1.58;;;0.60;;
20928;SDS011;21895;47.072;15.132;2022-09-09T01:55:49;4.25;;;0.80;;
20928;SDS011;21895;47.072;15.132;2022-09-09T02:00:55;1.20;;;0.67;;
20928;SDS011;21895;47.072;15.132;2022-09-09T02:04:52;5.70;;;0.60;;
20928;SDS011;21895;47.072;15.132;2022-09-09T02:07:41;3.37;;;0.87;;
20928;SDS011;21895;47.072;15.132;2022-09-09T02:10:19;2.60;;;0.85;;
20928;SDS011;21895;47.072;15.132;2022-09-09T02:13:14;0.73;;;0.73;;
20928;SDS011;21895;47.072;15.132;2022-09-09T02:16:21;6.23;;;0.73;;
20928;SDS011;21895;47.072;15.132;2022-09-09T02:19:07;1.20;;;0.70;;
20928;SDS011;21895;47.072;15.132;2022-09-09T02:21:41;1.27;;;0.60;;
20928;SDS011;21895;47.072;15.132;2022-09-09T02:24:11;3.25;;;1.00;;
20928;SDS011;21895;47.072;15.132;2022-09-09T02:26:42;5.07;;;0.77;;
20928;SDS011;21895;47.072;15.132;2022-09-09T02:29:14;0.88;;;0.65;;
20928;SDS011;21895;47.072;15.132;2022-09-09T02:31:49;3.63;;;0.97;;
20928;SDS011;21895;47.072;15.132;2022-09-09T02:34:19;5.97;;;0.80;;
20928;SDS011;21895;47.072;15.132;2022-09-09T02:36:49;3.97;;;0.80;;
20928;SDS011;21895;47.072;15.132;2022-09-09T02:39:19;0.73;;;0.70;;
20928;SDS011;21895;47.072;15.132;2022-09-09T02:41:45;3.73;;;0.83;;
20928;SDS011;21895;47.072;15.132;2022-09-09T02:44:17;8.47;;;1.00;;
20928;SDS011;21895;47.072;15.132;2022-09-09T02:47:09;1.80;;;0.80;;
20928;SDS011;21895;47.072;15.132;2022-09-09T02:54:43;17.00;;;1.10;;
20928;SDS011;21895;47.072;15.132;2022-09-09T02:57:14;1.43;;;0.80;;
20928;SDS011;21895;47.072;15.132;2022-09-09T03:00:03;12.87;;;1.20;;
20928;SDS011;21895;47.072;15.132;2022-09-09T03:02:31;2.05;;;0.88;;
20928;SDS011;21895;47.072;15.132;2022-09-09T03:04:57;5.67;;;0.90;;
20928;SDS011;21895;47.072;15.132;2022-09-09T03:07:24;1.00;;;0.90;;
20928;SDS011;21895;47.072;15.132;2022-09-09T03:09:50;4.43;;;0.87;;
20928;SDS011;21895;47.072;15.132;2022-09-09T03:12:20;1.50;;;0.70;;
20928;SDS011;21895;47.072;15.132;2022-09-09T03:14:46;10.33;;;0.80;;
20928;SDS011;21895;47.072;15.132;2022-09-09T03:17:13;1.73;;;0.97;;
20928;SDS011;21895;47.072;15.132;2022-09-09T03:19:39;0.97;;;0.73;;
20928;SDS011;21895;47.072;15.132;2022-09-09T03:22:06;2.73;;;0.80;;
20928;SDS011;21895;47.072;15.132;2022-09-09T03:24:35;9.47;;;0.87;;
20928;SDS011;21895;47.072;15.132;2022-09-09T03:27:02;3.03;;;0.70;;
20928;SDS011;21895;47.072;15.132;2022-09-09T03:29:29;4.53;;;0.70;;
20928;SDS011;21895;47.072;15.132;2022-09-09T03:31:55;8.13;;;0.87;;
20928;SDS011;21895;47.072;15.132;2022-09-09T03:34:22;0.62;;;0.62;;
20928;SDS011;21895;47.072;15.132;2022-09-09T03:36:48;5.73;;;0.80;;
20928;SDS011;21895;47.072;15.132;2022-09-09T03:39:15;4.15;;;0.95;;
20928;SDS011;21895;47.072;15.132;2022-09-09T03:41:41;3.03;;;0.80;;
20928;SDS011;21895;47.072;15.132;2022-09-09T03:44:10;4.60;;;0.87;;
20928;SDS011;21895;47.072;15.132;2022-09-09T03:46:37;2.53;;;0.93;;
20928;SDS011;21895;47.072;15.132;2022-09-09T03:49:03;5.00;;;1.17;;
20928;SDS011;21895;47.072;15.132;2022-09-09T03:51:30;2.17;;;0.80;;
20928;SDS011;21895;47.072;15.132;2022-09-09T03:53:56;2.57;;;0.90;;
20928;SDS011;21895;47.072;15.132;2022-09-09T03:56:24;2.40;;;0.90;;
20928;SDS011;21895;47.072;15.132;2022-09-09T03:58:50;8.00;;;1.00;;
20928;SDS011;21895;47.072;15.132;2022-09-09T04:01:17;3.77;;;1.27;;
20928;SDS011;21895;47.072;15.132;2022-09-09T04:03:43;5.13;;;0.87;;
20928;SDS011;21895;47.072;15.132;2022-09-09T04:06:11;3.42;;;0.70;;
20928;SDS011;21895;47.072;15.132;2022-09-09T04:08:40;1.12;;;0.80;;
20928;SDS011;21895;47.072;15.132;2022-09-09T04:11:07;1.98;;;0.70;;
20928;SDS011;21895;47.072;15.132;2022-09-09T04:13:34;6.57;;;0.77;;
20928;SDS011;21895;47.072;15.132;2022-09-09T04:16:04;5.35;;;0.62;;
20928;SDS011;21895;47.072;15.132;2022-09-09T04:18:31;3.22;;;0.80;;
20928;SDS011;21895;47.072;15.132;2022-09-09T04:20:59;16.10;;;1.00;;
20928;SDS011;21895;47.072;15.132;2022-09-09T04:23:27;3.23;;;0.87;;
20928;SDS011;21895;47.072;15.132;2022-09-09T04:25:55;6.80;;;1.30;;
20928;SDS011;21895;47.072;15.132;2022-09-09T04:28:24;3.77;;;0.80;;
20928;SDS011;21895;47.072;15.132;2022-09-09T04:30:54;6.10;;;1.12;;
20928;SDS011;21895;47.072;15.132;2022-09-09T04:33:25;1.13;;;0.67;;
20928;SDS011;21895;47.072;15.132;2022-09-09T04:35:52;7.53;;;0.90;;
20928;SDS011;21895;47.072;15.132;2022-09-09T04:38:20;2.97;;;0.90;;
20928;SDS011;21895;47.072;15.132;2022-09-09T04:40:48;6.12;;;0.77;;
20928;SDS011;21895;47.072;15.132;2022-09-09T04:43:20;4.10;;;1.00;;
20928;SDS011;21895;47.072;15.132;2022-09-09T04:45:48;3.00;;;1.43;;
20928;SDS011;21895;47.072;15.132;2022-09-09T04:48:20;5.15;;;1.80;;
20928;SDS011;21895;47.072;15.132;2022-09-09T04:50:56;2.95;;;1.00;;
20928;SDS011;21895;47.072;15.132;2022-09-09T04:53:31;8.45;;;0.93;;
20928;SDS011;21895;47.072;15.132;2022-09-09T04:56:02;3.15;;;0.88;;
20928;SDS011;21895;47.072;15.132;2022-09-09T04:58:35;4.32;;;1.50;;
20928;SDS011;21895;47.072;15.132;2022-09-09T05:01:10;5.97;;;1.80;;
20928;SDS011;21895;47.072;15.132;2022-09-09T05:03:43;8.32;;;1.65;;
20928;SDS011;21895;47.072;15.132;2022-09-09T05:06:11;10.03;;;1.60;;
20928;SDS011;21895;47.072;15.132;2022-09-09T05:08:41;2.00;;;1.33;;
20928;SDS011;21895;47.072;15.132;2022-09-09T05:11:20;1.53;;;1.40;;
20928;SDS011;21895;47.072;15.132;2022-09-09T05:13:51;1.42;;;1.02;;
20928;SDS011;21895;47.072;15.132;2022-09-09T05:16:19;0.87;;;0.80;;
20928;SDS011;21895;47.072;15.132;2022-09-09T05:18:47;7.18;;;1.30;;
20928;SDS011;21895;47.072;15.132;2022-09-09T05:21:14;1.05;;;0.77;;
20928;SDS011;21895;47.072;15.132;2022-09-09T05:23:44;1.80;;;1.00;;
20928;SDS011;21895;47.072;15.132;2022-09-09T05:26:12;8.50;;;0.97;;
20928;SDS011;21895;47.072;15.132;2022-09-09T05:28:43;4.45;;;0.93;;
20928;SDS011;21895;47.072;15.132;2022-09-09T05:31:11;3.37;;;0.98;;
20928;SDS011;21895;47.072;15.132;2022-09-09T05:33:40;1.60;;;1.00;;
20928;SDS011;21895;47.072;15.132;2022-09-09T05:36:12;6.07;;;0.95;;
20928;SDS011;21895;47.072;15.132;2022-09-09T05:38:44;9.00;;;0.90;;
20928;SDS011;21895;47.072;15.132;2022-09-09T05:41:11;1.95;;;1.10;;
20928;SDS011;21895;47.072;15.132;2022-09-09T05:43:41;8.82;;;0.88;;
20928;SDS011;21895;47.072;15.132;2022-09-09T05:46:10;6.37;;;1.45;;
20928;SDS011;21895;47.072;15.132;2022-09-09T05:48:49;9.45;;;1.50;;
20928;SDS011;21895;47.072;15.132;2022-09-09T05:51:18;8.82;;;1.50;;
20928;SDS011;21895;47.072;15.132;2022-09-09T05:53:50;4.75;;;1.60;;
20928;SDS011;21895;47.072;15.132;2022-09-09T05:56:17;8.10;;;1.55;;
20928;SDS011;21895;47.072;15.132;2022-09-09T05:58:53;6.50;;;1.60;;
20928;SDS011;21895;47.072;15.132;2022-09-09T06:01:22;6.32;;;2.55;;
20928;SDS011;21895;47.072;15.132;2022-09-09T06:03:52;1.62;;;0.93;;
20928;SDS011;21895;47.072;15.132;2022-09-09T06:06:19;3.05;;;1.98;;
20928;SDS011;21895;47.072;15.132;2022-09-09T06:08:57;5.47;;;1.20;;
20928;SDS011;21895;47.072;15.132;2022-09-09T06:11:25;10.50;;;1.27;;
20928;SDS011;21895;47.072;15.132;2022-09-09T06:13:56;4.55;;;1.35;;
20928;SDS011;21895;47.072;15.132;2022-09-09T06:16:24;6.80;;;1.27;;
20928;SDS011;21895;47.072;15.132;2022-09-09T06:18:54;9.93;;;1.67;;
20928;SDS011;21895;47.072;15.132;2022-09-09T06:21:35;10.27;;;1.87;;
20928;SDS011;21895;47.072;15.132;2022-09-09T06:24:03;4.87;;;1.40;;
20928;SDS011;21895;47.072;15.132;2022-09-09T06:26:31;8.85;;;1.60;;
20928;SDS011;21895;47.072;15.132;2022-09-09T06:29:00;3.55;;;1.48;;
20928;SDS011;21895;47.072;15.132;2022-09-09T06:31:30;5.53;;;1.27;;
20928;SDS011;21895;47.072;15.132;2022-09-09T06:33:59;4.37;;;1.37;;
20928;SDS011;21895;47.072;15.132;2022-09-09T06:36:27;3.47;;;1.50;;
20928;SDS011;21895;47.072;15.132;2022-09-09T06:38:57;3.75;;;1.20;;
20928;SDS011;21895;47.072;15.132;2022-09-09T06:41:25;5.68;;;1.27;;
20928;SDS011;21895;47.072;15.132;2022-09-09T06:43:54;9.48;;;1.40;;
20928;SDS011;21895;47.072;15.132;2022-09-09T06:46:22;6.18;;;1.15;;
20928;SDS011;21895;47.072;15.132;2022-09-09T06:48:54;4.25;;;1.40;;
20928;SDS011;21895;47.072;15.132;2022-09-09T06:51:23;11.73;;;1.40;;
20928;SDS011;21895;47.072;15.132;2022-09-09T06:53:53;5.60;;;1.00;;
20928;SDS011;21895;47.072;15.132;2022-09-09T06:56:24;16.12;;;1.37;;
20928;SDS011;21895;47.072;15.132;2022-09-09T06:59:11;5.18;;;1.00;;
20928;SDS011;21895;47.072;15.132;2022-09-09T07:01:38;5.93;;;1.10;;
20928;SDS011;21895;47.072;15.132;2022-09-09T07:04:08;3.53;;;1.12;;
20928;SDS011;21895;47.072;15.132;2022-09-09T07:06:37;4.05;;;1.23;;
20928;SDS011;21895;47.072;15.132;2022-09-09T07:09:09;10.73;;;1.20;;
20928;SDS011;21895;47.072;15.132;2022-09-09T07:11:42;5.72;;;1.60;;
20928;SDS011;21895;47.072;15.132;2022-09-09T07:14:18;1.77;;;1.10;;
20928;SDS011;21895;47.072;15.132;2022-09-09T07:16:45;3.53;;;1.20;;
20928;SDS011;21895;47.072;15.132;2022-09-09T07:19:12;6.37;;;1.10;;
20928;SDS011;21895;47.072;15.132;2022-09-09T07:21:40;1.85;;;1.08;;
20928;SDS011;21895;47.072;15.132;2022-09-09T07:24:07;6.85;;;1.35;;
20928;SDS011;21895;47.072;15.132;2022-09-09T07:26:35;5.15;;;0.90;;
20928;SDS011;21895;47.072;15.132;2022-09-09T07:29:04;1.58;;;0.90;;
20928;SDS011;21895;47.072;15.132;2022-09-09T07:31:31;4.30;;;1.08;;
20928;SDS011;21895;47.072;15.132;2022-09-09T07:34:02;3.85;;;0.80;;
20928;SDS011;21895;47.072;15.132;2022-09-09T07:36:31;5.18;;;1.10;;
20928;SDS011;21895;47.072;15.132;2022-09-09T07:39:05;2.67;;;1.15;;
20928;SDS011;21895;47.072;15.132;2022-09-09T07:41:37;2.53;;;1.20;;
20928;SDS011;21895;47.072;15.132;2022-09-09T07:44:14;9.20;;;1.05;;
20928;SDS011;21895;47.072;15.132;2022-09-09T07:46:46;1.95;;;1.17;;
20928;SDS011;21895;47.072;15.132;2022-09-09T07:49:14;2.85;;;1.20;;
20928;SDS011;21895;47.072;15.132;2022-09-09T07:51:42;8.52;;;1.77;;
20928;SDS011;21895;47.072;15.132;2022-09-09T07:54:12;11.27;;;1.95;;
20928;SDS011;21895;47.072;15.132;2022-09-09T07:56:42;4.57;;;1.55;;
20928;SDS011;21895;47.072;15.132;2022-09-09T07:59:09;6.10;;;1.27;;
20928;SDS011;21895;47.072;15.132;2022-09-09T08:01:37;12.85;;;2.25;;
20928;SDS011;21895;47.072;15.132;2022-09-09T08:04:12;10.63;;;2.10;;
20928;SDS011;21895;47.072;15.132;2022-09-09T08:06:43;8.30;;;2.08;;
20928;SDS011;21895;47.072;15.132;2022-09-09T08:09:23;11.50;;;1.83;;
20928;SDS011;21895;47.072;15.132;2022-09-09T08:11:52;17.50;;;2.70;;
20928;SDS011;21895;47.072;15.132;2022-09-09T08:14:19;6.90;;;2.15;;
20928;SDS011;21895;47.072;15.132;2022-09-09T08:16:47;19.25;;;3.25;;
20928;SDS011;21895;47.072;15.132;2022-09-09T08:19:16;19.83;;;2.55;;
20928;SDS011;21895;47.072;15.132;2022-09-09T08:21:42;11.12;;;2.25;;
20928;SDS011;21895;47.072;15.132;2022-09-09T08:24:10;18.40;;;2.28;;
20928;SDS011;21895;47.072;15.132;2022-09-09T08:26:40;11.77;;;2.10;;
20928;SDS011;21895;47.072;15.132;2022-09-09T08:29:09;8.30;;;2.10;;
20928;SDS011;21895;47.072;15.132;2022-09-09T08:31:39;5.60;;;1.80;;
20928;SDS011;21895;47.072;15.132;2022-09-09T08:34:09;11.50;;;2.35;;
20928;SDS011;21895;47.072;15.132;2022-09-09T08:36:38;7.93;;;1.80;;
20928;SDS011;21895;47.072;15.132;2022-09-09T08:39:14;10.48;;;2.20;;
20928;SDS011;21895;47.072;15.132;2022-09-09T08:42:31;5.97;;;1.80;;
20928;SDS011;21895;47.072;15.132;2022-09-09T08:45:19;4.40;;;1.62;;
20928;SDS011;21895;47.072;15.132;2022-09-09T08:48:08;4.82;;;1.52;;
20928;SDS011;21895;47.072;15.132;2022-09-09T08:50:59;6.60;;;1.80;;
20928;SDS011;21895;47.072;15.132;2022-09-09T08:53:29;7.93;;;1.50;;
20928;SDS011;21895;47.072;15.132;2022-09-09T08:56:09;3.80;;;1.77;;
20928;SDS011;21895;47.072;15.132;2022-09-09T08:58:45;6.43;;;1.77;;
20928;SDS011;21895;47.072;15.132;2022-09-09T09:07:39;3.75;;;1.48;;
20928;SDS011;21895;47.072;15.132;2022-09-09T09:10:33;9.68;;;1.62;;
20928;SDS011;21895;47.072;15.132;2022-09-09T09:13:44;3.85;;;1.90;;
20928;SDS011;21895;47.072;15.132;2022-09-09T09:20:21;9.02;;;1.77;;
20928;SDS011;21895;47.072;15.132;2022-09-09T09:23:09;5.87;;;1.85;;
20928;SDS011;21895;47.072;15.132;2022-09-09T09:25:47;6.12;;;1.85;;
20928;SDS011;21895;47.072;15.132;2022-09-09T09:28:17;4.32;;;1.95;;
20928;SDS011;21895;47.072;15.132;2022-09-09T09:30:52;3.92;;;1.45;;
20928;SDS011;21895;47.072;15.132;2022-09-09T09:33:51;10.13;;;1.65;;
20928;SDS011;21895;47.072;15.132;2022-09-09T09:36:21;3.05;;;1.65;;
20928;SDS011;21895;47.072;15.132;2022-09-09T09:39:00;2.78;;;1.75;;
20928;SDS011;21895;47.072;15.132;2022-09-09T09:42:07;4.18;;;1.40;;
20928;SDS011;21895;47.072;15.132;2022-09-09T09:44:46;6.35;;;1.40;;
20928;SDS011;21895;47.072;15.132;2022-09-09T09:47:15;2.08;;;1.00;;
20928;SDS011;21895;47.072;15.132;2022-09-09T09:49:59;6.25;;;1.20;;
20928;SDS011;21895;47.072;15.132;2022-09-09T09:52:28;4.82;;;1.30;;
20928;SDS011;21895;47.072;15.132;2022-09-09T09:54:58;5.25;;;1.10;;
20928;SDS011;21895;47.072;15.132;2022-09-09T09:57:33;4.18;;;1.30;;
20928;SDS011;21895;47.072;15.132;2022-09-09T10:00:20;6.43;;;0.95;;
20928;SDS011;21895;47.072;15.132;2022-09-09T10:02:48;2.55;;;1.00;;
20928;SDS011;21895;47.072;15.132;2022-09-09T10:05:19;6.37;;;1.10;;
20928;SDS011;21895;47.072;15.132;2022-09-09T10:08:13;2.45;;;1.17;;
20928;SDS011;21895;47.072;15.132;2022-09-09T10:10:46;3.42;;;1.00;;
20928;SDS011;21895;47.072;15.132;2022-09-09T10:25:52;1.05;;;0.93;;
20928;SDS011;21895;47.072;15.132;2022-09-09T10:29:10;1.55;;;1.10;;
20928;SDS011;21895;47.072;15.132;2022-09-09T10:34:02;3.83;;;1.10;;
20928;SDS011;21895;47.072;15.132;2022-09-09T10:37:15;1.50;;;1.20;;
20928;SDS011;21895;47.072;15.132;2022-09-09T10:42:04;4.57;;;1.45;;
20928;SDS011;21895;47.072;15.132;2022-09-09T10:44:56;1.95;;;1.10;;
20928;SDS011;21895;47.072;15.132;2022-09-09T10:48:11;3.12;;;1.20;;
20928;SDS011;21895;47.072;15.132;2022-09-09T10:55:20;2.22;;;1.27;;
20928;SDS011;21895;47.072;15.132;2022-09-09T10:57:57;6.40;;;1.30;;
20928;SDS011;21895;47.072;15.132;2022-09-09T11:00:45;1.85;;;1.15;;
20928;SDS011;21895;47.072;15.132;2022-09-09T11:03:27;5.18;;;1.40;;
20928;SDS011;21895;47.072;15.132;2022-09-09T11:06:00;2.15;;;1.35;;
20928;SDS011;21895;47.072;15.132;2022-09-09T11:08:40;4.18;;;1.50;;
20928;SDS011;21895;47.072;15.132;2022-09-09T11:11:15;1.45;;;1.30;;
20928;SDS011;21895;47.072;15.132;2022-09-09T11:14:39;1.17;;;1.10;;
20928;SDS011;21895;47.072;15.132;2022-09-09T11:17:15;4.20;;;1.20;;
20928;SDS011;21895;47.072;15.132;2022-09-09T11:19:49;3.10;;;1.20;;
20928;SDS011;21895;47.072;15.132;2022-09-09T11:22:27;2.22;;;1.20;;
20928;SDS011;21895;47.072;15.132;2022-09-09T11:34:34;10.35;;;1.42;;
20928;SDS011;21895;47.072;15.132;2022-09-09T11:41:16;1.50;;;1.23;;
20928;SDS011;21895;47.072;15.132;2022-09-09T11:43:50;4.32;;;1.45;;
20928;SDS011;21895;47.072;15.132;2022-09-09T11:46:19;1.90;;;1.20;;
20928;SDS011;21895;47.072;15.132;2022-09-09T11:49:01;3.53;;;1.25;;
20928;SDS011;21895;47.072;15.132;2022-09-09T11:51:32;3.12;;;1.25;;
20928;SDS011;21895;47.072;15.132;2022-09-09T11:54:01;1.20;;;1.05;;
20928;SDS011;21895;47.072;15.132;2022-09-09T11:56:56;3.85;;;1.40;;
20928;SDS011;21895;47.072;15.132;2022-09-09T11:59:26;1.30;;;1.20;;
20928;SDS011;21895;47.072;15.132;2022-09-09T12:06:28;5.15;;;1.17;;
20928;SDS011;21895;47.072;15.132;2022-09-09T12:09:04;1.70;;;1.20;;
20928;SDS011;21895;47.072;15.132;2022-09-09T12:12:28;5.65;;;1.30;;
20928;SDS011;21895;47.072;15.132;2022-09-09T12:15:17;1.35;;;1.17;;
20928;SDS011;21895;47.072;15.132;2022-09-09T12:17:52;2.25;;;1.20;;
20928;SDS011;21895;47.072;15.132;2022-09-09T12:20:33;5.50;;;1.30;;
20928;SDS011;21895;47.072;15.132;2022-09-09T12:26:28;5.45;;;1.48;;
20928;SDS011;21895;47.072;15.132;2022-09-09T12:29:24;1.10;;;1.00;;
20928;SDS011;21895;47.072;15.132;2022-09-09T12:32:23;3.25;;;1.12;;
20928;SDS011;21895;47.072;15.132;2022-09-09T12:34:53;1.80;;;1.10;;
20928;SDS011;21895;47.072;15.132;2022-09-09T12:37:40;1.55;;;1.20;;
20928;SDS011;21895;47.072;15.132;2022-09-09T12:40:23;1.10;;;1.00;;
20928;SDS011;21895;47.072;15.132;2022-09-09T12:43:01;3.53;;;1.35;;
20928;SDS011;21895;47.072;15.132;2022-09-09T12:45:46;4.60;;;1.27;;
20928;SDS011;21895;47.072;15.132;2022-09-09T12:48:21;2.97;;;1.23;;
20928;SDS011;21895;47.072;15.132;2022-09-09T12:51:16;2.40;;;1.30;;
20928;SDS011;21895;47.072;15.132;2022-09-09T12:53:59;5.07;;;1.30;;
20928;SDS011;21895;47.072;15.132;2022-09-09T12:56:27;6.20;;;1.25;;
20928;SDS011;21895;47.072;15.132;2022-09-09T12:58:58;1.85;;;1.40;;
20928;SDS011;21895;47.072;15.132;2022-09-09T13:01:32;5.57;;;1.30;;
20928;SDS011;21895;47.072;15.132;2022-09-09T13:03:59;4.87;;;1.33;;
20928;SDS011;21895;47.072;15.132;2022-09-09T13:06:28;4.03;;;1.48;;
20928;SDS011;21895;47.072;15.132;2022-09-09T13:08:58;4.72;;;1.90;;
20928;SDS011;21895;47.072;15.132;2022-09-09T13:11:30;3.80;;;1.50;;
20928;SDS011;21895;47.072;15.132;2022-09-09T13:14:15;2.90;;;1.48;;
20928;SDS011;21895;47.072;15.132;2022-09-09T13:16:55;6.70;;;1.60;;
20928;SDS011;21895;47.072;15.132;2022-09-09T13:19:26;6.37;;;1.65;;
20928;SDS011;21895;47.072;15.132;2022-09-09T13:22:11;1.70;;;1.17;;
20928;SDS011;21895;47.072;15.132;2022-09-09T13:25:27;8.30;;;1.60;;
20928;SDS011;21895;47.072;15.132;2022-09-09T13:27:59;4.72;;;2.03;;
20928;SDS011;21895;47.072;15.132;2022-09-09T13:30:34;5.68;;;1.60;;
20928;SDS011;21895;47.072;15.132;2022-09-09T13:33:51;6.97;;;1.75;;
20928;SDS011;21895;47.072;15.132;2022-09-09T13:36:27;3.75;;;1.40;;
20928;SDS011;21895;47.072;15.132;2022-09-09T13:39:00;4.20;;;1.58;;
20928;SDS011;21895;47.072;15.132;2022-09-09T13:41:33;9.15;;;1.70;;
20928;SDS011;21895;47.072;15.132;2022-09-09T13:44:23;6.45;;;1.62;;
20928;SDS011;21895;47.072;15.132;2022-09-09T13:47:38;2.37;;;1.80;;
20928;SDS011;21895;47.072;15.132;2022-09-09T13:50:25;4.95;;;1.52;;
20928;SDS011;21895;47.072;15.132;2022-09-09T13:52:57;2.95;;;1.67;;
20928;SDS011;21895;47.072;15.132;2022-09-09T13:55:25;4.87;;;1.90;;
20928;SDS011;21895;47.072;15.132;2022-09-09T13:57:54;2.55;;;1.77;;
20928;SDS011;21895;47.072;15.132;2022-09-09T14:00:28;4.35;;;1.50;;
20928;SDS011;21895;47.072;15.132;2022-09-09T14:02:57;2.60;;;1.85;;
20928;SDS011;21895;47.072;15.132;2022-09-09T14:05:27;9.80;;;1.60;;
20928;SDS011;21895;47.072;15.132;2022-09-09T14:07:55;9.15;;;1.92;;
20928;SDS011;21895;47.072;15.132;2022-09-09T14:10:23;7.03;;;1.65;;
20928;SDS011;21895;47.072;15.132;2022-09-09T14:12:50;5.55;;;1.67;;
20928;SDS011;21895;47.072;15.132;2022-09-09T14:15:16;5.60;;;1.70;;
20928;SDS011;21895;47.072;15.132;2022-09-09T14:17:43;3.65;;;1.77;;
20928;SDS011;21895;47.072;15.132;2022-09-09T14:20:09;5.35;;;1.90;;
20928;SDS011;21895;47.072;15.132;2022-09-09T14:22:37;5.15;;;2.08;;
20928;SDS011;21895;47.072;15.132;2022-09-09T14:25:04;2.62;;;1.60;;
20928;SDS011;21895;47.072;15.132;2022-09-09T14:27:32;7.87;;;1.92;;
20928;SDS011;21895;47.072;15.132;2022-09-09T14:29:58;6.03;;;1.40;;
20928;SDS011;21895;47.072;15.132;2022-09-09T14:32:26;5.55;;;1.80;;
20928;SDS011;21895;47.072;15.132;2022-09-09T14:34:52;8.30;;;1.60;;
20928;SDS011;21895;47.072;15.132;2022-09-09T14:37:19;5.20;;;1.77;;
20928;SDS011;21895;47.072;15.132;2022-09-09T14:39:46;3.85;;;1.80;;
20928;SDS011;21895;47.072;15.132;2022-09-09T14:42:13;3.00;;;1.60;;
20928;SDS011;21895;47.072;15.132;2022-09-09T14:44:40;6.00;;;1.50;;
20928;SDS011;21895;47.072;15.132;2022-09-09T14:47:06;4.55;;;1.50;;
20928;SDS011;21895;47.072;15.132;2022-09-09T14:49:34;2.92;;;1.52;;
20928;SDS011;21895;47.072;15.132;2022-09-09T14:52:01;1.87;;;1.50;;
20928;SDS011;21895;47.072;15.132;2022-09-09T14:54:29;3.35;;;1.50;;
20928;SDS011;21895;47.072;15.132;2022-09-09T14:56:56;9.30;;;1.73;;
20928;SDS011;21895;47.072;15.132;2022-09-09T14:59:23;5.28;;;1.52;;
20928;SDS011;21895;47.072;15.132;2022-09-09T15:01:50;7.53;;;2.03;;
20928;SDS011;21895;47.072;15.132;2022-09-09T15:04:16;7.28;;;1.85;;
20928;SDS011;21895;47.072;15.132;2022-09-09T15:06:43;4.28;;;2.33;;
20928;SDS011;21895;47.072;15.132;2022-09-09T15:09:13;25.42;;;14.55;;
20928;SDS011;21895;47.072;15.132;2022-09-09T15:11:40;15.77;;;11.00;;
20928;SDS011;21895;47.072;15.132;2022-09-09T15:14:07;3.83;;;3.05;;
20928;SDS011;21895;47.072;15.132;2022-09-09T15:16:35;5.68;;;2.08;;
20928;SDS011;21895;47.072;15.132;2022-09-09T15:19:02;6.47;;;2.03;;
20928;SDS011;21895;47.072;15.132;2022-09-09T15:21:30;5.25;;;1.83;;
20928;SDS011;21895;47.072;15.132;2022-09-09T15:24:00;2.50;;;1.70;;
20928;SDS011;21895;47.072;15.132;2022-09-09T15:26:26;3.30;;;1.83;;
20928;SDS011;21895;47.072;15.132;2022-09-09T15:28:53;3.95;;;1.80;;
20928;SDS011;21895;47.072;15.132;2022-09-09T15:31:21;4.07;;;2.17;;
20928;SDS011;21895;47.072;15.132;2022-09-09T15:34:02;4.82;;;2.25;;
20928;SDS011;21895;47.072;15.132;2022-09-09T15:36:36;3.28;;;2.03;;
20928;SDS011;21895;47.072;15.132;2022-09-09T15:39:06;4.57;;;1.90;;
20928;SDS011;21895;47.072;15.132;2022-09-09T15:41:38;5.43;;;2.05;;
20928;SDS011;21895;47.072;15.132;2022-09-09T15:44:05;4.32;;;1.77;;
20928;SDS011;21895;47.072;15.132;2022-09-09T15:46:33;3.00;;;1.62;;
20928;SDS011;21895;47.072;15.132;2022-09-09T15:49:06;4.53;;;1.70;;
20928;SDS011;21895;47.072;15.132;2022-09-09T15:51:44;7.62;;;2.30;;
20928;SDS011;21895;47.072;15.132;2022-09-09T15:54:23;5.22;;;1.40;;
20928;SDS011;21895;47.072;15.132;2022-09-09T15:56:55;1.98;;;1.60;;
20928;SDS011;21895;47.072;15.132;2022-09-09T15:59:26;4.03;;;1.60;;
20928;SDS011;21895;47.072;15.132;2022-09-09T16:01:55;2.28;;;1.42;;
20928;SDS011;21895;47.072;15.132;2022-09-09T16:04:23;2.00;;;1.30;;
20928;SDS011;21895;47.072;15.132;2022-09-09T16:06:54;1.70;;;1.55;;
20928;SDS011;21895;47.072;15.132;2022-09-09T16:09:30;3.78;;;1.65;;
20928;SDS011;21895;47.072;15.132;2022-09-09T16:11:57;2.47;;;1.50;;
20928;SDS011;21895;47.072;15.132;2022-09-09T16:14:26;4.28;;;1.60;;
20928;SDS011;21895;47.072;15.132;2022-09-09T16:16:53;3.03;;;1.70;;
20928;SDS011;21895;47.072;15.132;2022-09-09T16:19:20;8.40;;;1.62;;
20928;SDS011;21895;47.072;15.132;2022-09-09T16:21:47;2.00;;;1.75;;
20928;SDS011;21895;47.072;15.132;2022-09-09T16:24:16;4.12;;;2.78;;
20928;SDS011;21895;47.072;15.132;2022-09-09T16:26:46;4.53;;;1.92;;
20928;SDS011;21895;47.072;15.132;2022-09-09T16:29:16;13.35;;;2.67;;
20928;SDS011;21895;47.072;15.132;2022-09-09T16:31:44;2.58;;;1.90;;
20928;SDS011;21895;47.072;15.132;2022-09-09T16:34:12;2.85;;;1.92;;
20928;SDS011;21895;47.072;15.132;2022-09-09T16:36:40;2.45;;;1.50;;
20928;SDS011;21895;47.072;15.132;2022-09-09T16:39:12;7.10;;;1.65;;
20928;SDS011;21895;47.072;15.132;2022-09-09T16:41:42;4.07;;;1.55;;